sensor_id;sensor_type;location;lat;lon;timestamp;P1;durP1;ratioP1;P2;durP2;ratioP2
17866;SDS011;9059;49.934;8.650;2022-08-04T00:00:50;4.18;;;2.63;;
17866;SDS011;9059;49.934;8.650;2022-08-04T00:01:59;8.68;;;2.40;;
17866;SDS011;9059;49.934;8.650;2022-08-04T00:03:09;5.85;;;2.00;;
17866;SDS011;9059;49.934;8.650;2022-08-04T00:04:18;8.45;;;2.40;;
17866;SDS011;9059;49.934;8.650;2022-08-04T00:05:28;2.72;;;2.22;;
17866;SDS011;9059;49.934;8.650;2022-08-04T00:06:33;5.85;;;2.25;;
17866;SDS011;9059;49.934;8.650;2022-08-04T00:07:51;6.68;;;2.30;;
17866;SDS011;9059;49.934;8.650;2022-08-04T00:08:59;2.92;;;2.30;;
17866;SDS011;9059;49.934;8.650;2022-08-04T00:10:04;3.20;;;2.35;;
17866;SDS011;9059;49.934;8.650;2022-08-04T00:11:06;2.40;;;2.00;;
17866;SDS011;9059;49.934;8.650;2022-08-04T00:12:12;3.75;;;2.28;;
17866;SDS011;9059;49.934;8.650;2022-08-04T00:13:15;6.43;;;2.50;;
17866;SDS011;9059;49.934;8.650;2022-08-04T00:14:17;4.25;;;2.20;;
17866;SDS011;9059;49.934;8.650;2022-08-04T00:15:18;11.35;;;2.60;;
17866;SDS011;9059;49.934;8.650;2022-08-04T00:16:21;2.50;;;2.30;;
17866;SDS011;9059;49.934;8.650;2022-08-04T00:17:25;3.40;;;2.25;;
17866;SDS011;9059;49.934;8.650;2022-08-04T00:18:33;3.72;;;1.98;;
17866;SDS011;9059;49.934;8.650;2022-08-04T00:19:35;3.58;;;2.40;;
17866;SDS011;9059;49.934;8.650;2022-08-04T00:20:40;3.78;;;2.05;;
17866;SDS011;9059;49.934;8.650;2022-08-04T00:21:46;4.05;;;2.45;;
17866;SDS011;9059;49.934;8.650;2022-08-04T00:22:48;4.15;;;2.30;;
17866;SDS011;9059;49.934;8.650;2022-08-04T00:23:51;5.68;;;2.30;;
17866;SDS011;9059;49.934;8.650;2022-08-04T00:24:55;5.43;;;2.35;;
17866;SDS011;9059;49.934;8.650;2022-08-04T00:25:56;10.35;;;2.03;;
17866;SDS011;9059;49.934;8.650;2022-08-04T00:26:58;2.80;;;2.22;;
17866;SDS011;9059;49.934;8.650;2022-08-04T00:27:59;2.63;;;2.15;;
17866;SDS011;9059;49.934;8.650;2022-08-04T00:29:01;4.53;;;2.67;;
17866;SDS011;9059;49.934;8.650;2022-08-04T00:30:02;4.50;;;2.25;;
17866;SDS011;9059;49.934;8.650;2022-08-04T00:31:06;3.15;;;2.40;;
17866;SDS011;9059;49.934;8.650;2022-08-04T00:32:10;7.13;;;2.55;;
17866;SDS011;9059;49.934;8.650;2022-08-04T00:33:12;3.50;;;2.25;;
17866;SDS011;9059;49.934;8.650;2022-08-04T00:34:14;2.47;;;2.00;;
17866;SDS011;9059;49.934;8.650;2022-08-04T00:35:15;3.10;;;2.78;;
17866;SDS011;9059;49.934;8.650;2022-08-04T00:36:18;5.50;;;2.58;;
17866;SDS011;9059;49.934;8.650;2022-08-04T00:37:20;3.85;;;2.60;;
17866;SDS011;9059;49.934;8.650;2022-08-04T00:38:22;3.58;;;2.72;;
17866;SDS011;9059;49.934;8.650;2022-08-04T00:39:24;4.20;;;2.40;;
17866;SDS011;9059;49.934;8.650;2022-08-04T00:40:27;3.10;;;2.20;;
17866;SDS011;9059;49.934;8.650;2022-08-04T00:41:34;3.47;;;2.60;;
17866;SDS011;9059;49.934;8.650;2022-08-04T00:42:41;3.03;;;2.42;;
17866;SDS011;9059;49.934;8.650;2022-08-04T00:43:46;3.05;;;2.40;;
17866;SDS011;9059;49.934;8.650;2022-08-04T00:45:11;3.05;;;2.28;;
17866;SDS011;9059;49.934;8.650;2022-08-04T00:47:53;5.60;;;2.40;;
17866;SDS011;9059;49.934;8.650;2022-08-04T00:49:08;6.05;;;2.63;;
17866;SDS011;9059;49.934;8.650;2022-08-04T00:50:22;3.83;;;2.60;;
17866;SDS011;9059;49.934;8.650;2022-08-04T00:51:31;2.97;;;2.53;;
17866;SDS011;9059;49.934;8.650;2022-08-04T00:52:43;3.42;;;2.30;;
17866;SDS011;9059;49.934;8.650;2022-08-04T00:53:56;7.00;;;2.40;;
17866;SDS011;9059;49.934;8.650;2022-08-04T00:55:04;5.38;;;2.70;;
17866;SDS011;9059;49.934;8.650;2022-08-04T00:56:19;5.35;;;2.30;;
17866;SDS011;9059;49.934;8.650;2022-08-04T00:57:29;3.60;;;2.38;;
17866;SDS011;9059;49.934;8.650;2022-08-04T00:58:36;3.83;;;2.50;;
17866;SDS011;9059;49.934;8.650;2022-08-04T00:59:46;3.40;;;2.42;;
17866;SDS011;9059;49.934;8.650;2022-08-04T01:00:57;4.30;;;2.55;;
17866;SDS011;9059;49.934;8.650;2022-08-04T01:02:01;4.50;;;2.30;;
17866;SDS011;9059;49.934;8.650;2022-08-04T01:03:08;8.13;;;2.45;;
17866;SDS011;9059;49.934;8.650;2022-08-04T01:04:15;2.65;;;2.20;;
17866;SDS011;9059;49.934;8.650;2022-08-04T01:05:25;4.25;;;2.30;;
17866;SDS011;9059;49.934;8.650;2022-08-04T01:06:35;6.53;;;2.60;;
17866;SDS011;9059;49.934;8.650;2022-08-04T01:07:47;4.60;;;2.38;;
17866;SDS011;9059;49.934;8.650;2022-08-04T01:09:05;3.10;;;2.38;;
17866;SDS011;9059;49.934;8.650;2022-08-04T01:10:15;4.13;;;2.70;;
17866;SDS011;9059;49.934;8.650;2022-08-04T01:11:29;5.28;;;2.47;;
17866;SDS011;9059;49.934;8.650;2022-08-04T01:12:42;4.20;;;2.40;;
17866;SDS011;9059;49.934;8.650;2022-08-04T01:15:16;5.07;;;3.05;;
17866;SDS011;9059;49.934;8.650;2022-08-04T01:16:18;5.95;;;2.25;;
17866;SDS011;9059;49.934;8.650;2022-08-04T01:17:27;4.13;;;2.40;;
17866;SDS011;9059;49.934;8.650;2022-08-04T01:18:45;3.25;;;2.40;;
17866;SDS011;9059;49.934;8.650;2022-08-04T01:19:53;4.60;;;2.30;;
17866;SDS011;9059;49.934;8.650;2022-08-04T01:21:16;4.20;;;2.35;;
17866;SDS011;9059;49.934;8.650;2022-08-04T01:22:43;4.97;;;2.72;;
17866;SDS011;9059;49.934;8.650;2022-08-04T01:24:04;6.10;;;2.33;;
17866;SDS011;9059;49.934;8.650;2022-08-04T01:27:25;2.67;;;2.20;;
17866;SDS011;9059;49.934;8.650;2022-08-04T01:28:35;2.75;;;2.25;;
17866;SDS011;9059;49.934;8.650;2022-08-04T01:29:58;3.83;;;2.40;;
17866;SDS011;9059;49.934;8.650;2022-08-04T01:31:05;3.67;;;2.47;;
17866;SDS011;9059;49.934;8.650;2022-08-04T01:32:12;5.90;;;2.45;;
17866;SDS011;9059;49.934;8.650;2022-08-04T01:33:22;4.95;;;2.70;;
17866;SDS011;9059;49.934;8.650;2022-08-04T01:34:29;6.18;;;2.35;;
17866;SDS011;9059;49.934;8.650;2022-08-04T01:35:35;4.78;;;2.63;;
17866;SDS011;9059;49.934;8.650;2022-08-04T01:36:45;4.43;;;2.50;;
17866;SDS011;9059;49.934;8.650;2022-08-04T01:37:48;4.82;;;2.38;;
17866;SDS011;9059;49.934;8.650;2022-08-04T01:38:55;5.10;;;2.72;;
17866;SDS011;9059;49.934;8.650;2022-08-04T01:39:59;3.30;;;2.33;;
17866;SDS011;9059;49.934;8.650;2022-08-04T01:41:04;3.45;;;2.40;;
17866;SDS011;9059;49.934;8.650;2022-08-04T01:42:06;7.55;;;2.30;;
17866;SDS011;9059;49.934;8.650;2022-08-04T01:43:08;4.25;;;2.78;;
17866;SDS011;9059;49.934;8.650;2022-08-04T01:44:12;5.07;;;2.17;;
17866;SDS011;9059;49.934;8.650;2022-08-04T01:45:13;3.85;;;2.22;;
17866;SDS011;9059;49.934;8.650;2022-08-04T01:46:15;3.60;;;2.47;;
17866;SDS011;9059;49.934;8.650;2022-08-04T01:47:19;3.35;;;2.42;;
17866;SDS011;9059;49.934;8.650;2022-08-04T01:48:22;3.58;;;2.28;;
17866;SDS011;9059;49.934;8.650;2022-08-04T01:49:26;4.10;;;2.38;;
17866;SDS011;9059;49.934;8.650;2022-08-04T01:50:33;4.40;;;2.58;;
17866;SDS011;9059;49.934;8.650;2022-08-04T01:51:36;3.65;;;2.13;;
17866;SDS011;9059;49.934;8.650;2022-08-04T01:52:39;6.25;;;2.45;;
17866;SDS011;9059;49.934;8.650;2022-08-04T01:53:42;2.58;;;2.30;;
17866;SDS011;9059;49.934;8.650;2022-08-04T01:54:43;3.95;;;2.40;;
17866;SDS011;9059;49.934;8.650;2022-08-04T01:55:47;3.10;;;2.40;;
17866;SDS011;9059;49.934;8.650;2022-08-04T01:56:50;4.28;;;2.55;;
17866;SDS011;9059;49.934;8.650;2022-08-04T01:57:52;7.97;;;2.67;;
17866;SDS011;9059;49.934;8.650;2022-08-04T01:58:54;3.22;;;2.28;;
17866;SDS011;9059;49.934;8.650;2022-08-04T01:59:58;2.85;;;2.35;;
17866;SDS011;9059;49.934;8.650;2022-08-04T02:01:01;3.42;;;2.45;;
17866;SDS011;9059;49.934;8.650;2022-08-04T02:02:04;7.07;;;2.47;;
17866;SDS011;9059;49.934;8.650;2022-08-04T02:03:05;4.20;;;2.20;;
17866;SDS011;9059;49.934;8.650;2022-08-04T02:04:06;4.28;;;2.67;;
17866;SDS011;9059;49.934;8.650;2022-08-04T02:05:08;3.38;;;2.42;;
17866;SDS011;9059;49.934;8.650;2022-08-04T02:06:12;2.83;;;2.35;;
17866;SDS011;9059;49.934;8.650;2022-08-04T02:07:24;4.65;;;2.40;;
17866;SDS011;9059;49.934;8.650;2022-08-04T02:08:35;4.13;;;2.20;;
17866;SDS011;9059;49.934;8.650;2022-08-04T02:09:45;3.13;;;2.50;;
17866;SDS011;9059;49.934;8.650;2022-08-04T02:11:03;4.57;;;2.92;;
17866;SDS011;9059;49.934;8.650;2022-08-04T02:12:07;2.95;;;2.45;;
17866;SDS011;9059;49.934;8.650;2022-08-04T02:13:16;4.20;;;2.63;;
17866;SDS011;9059;49.934;8.650;2022-08-04T02:14:24;3.72;;;2.42;;
17866;SDS011;9059;49.934;8.650;2022-08-04T02:15:44;3.85;;;2.30;;
17866;SDS011;9059;49.934;8.650;2022-08-04T02:16:51;4.10;;;2.20;;
17866;SDS011;9059;49.934;8.650;2022-08-04T02:17:56;3.65;;;2.60;;
17866;SDS011;9059;49.934;8.650;2022-08-04T02:19:03;3.58;;;2.72;;
17866;SDS011;9059;49.934;8.650;2022-08-04T02:20:11;3.70;;;2.50;;
17866;SDS011;9059;49.934;8.650;2022-08-04T02:21:15;3.85;;;2.70;;
17866;SDS011;9059;49.934;8.650;2022-08-04T02:22:19;3.00;;;2.50;;
17866;SDS011;9059;49.934;8.650;2022-08-04T02:23:26;3.08;;;2.45;;
17866;SDS011;9059;49.934;8.650;2022-08-04T02:24:29;3.72;;;2.60;;
17866;SDS011;9059;49.934;8.650;2022-08-04T02:25:33;4.13;;;2.40;;
17866;SDS011;9059;49.934;8.650;2022-08-04T02:26:39;7.20;;;2.45;;
17866;SDS011;9059;49.934;8.650;2022-08-04T02:29:18;4.28;;;2.60;;
17866;SDS011;9059;49.934;8.650;2022-08-04T02:30:21;6.53;;;2.70;;
17866;SDS011;9059;49.934;8.650;2022-08-04T02:31:26;6.13;;;2.58;;
17866;SDS011;9059;49.934;8.650;2022-08-04T02:32:31;4.90;;;2.50;;
17866;SDS011;9059;49.934;8.650;2022-08-04T02:33:39;3.38;;;2.25;;
17866;SDS011;9059;49.934;8.650;2022-08-04T02:34:46;4.50;;;2.72;;
17866;SDS011;9059;49.934;8.650;2022-08-04T02:35:50;4.10;;;2.60;;
17866;SDS011;9059;49.934;8.650;2022-08-04T02:36:53;2.53;;;2.20;;
17866;SDS011;9059;49.934;8.650;2022-08-04T02:38:00;10.25;;;2.20;;
17866;SDS011;9059;49.934;8.650;2022-08-04T02:39:06;3.85;;;2.17;;
17866;SDS011;9059;49.934;8.650;2022-08-04T02:40:08;2.95;;;2.40;;
17866;SDS011;9059;49.934;8.650;2022-08-04T02:41:10;3.55;;;2.80;;
17866;SDS011;9059;49.934;8.650;2022-08-04T02:42:12;4.53;;;2.38;;
17866;SDS011;9059;49.934;8.650;2022-08-04T02:43:14;4.80;;;2.80;;
17866;SDS011;9059;49.934;8.650;2022-08-04T02:44:21;3.35;;;2.25;;
17866;SDS011;9059;49.934;8.650;2022-08-04T02:45:24;3.20;;;2.40;;
17866;SDS011;9059;49.934;8.650;2022-08-04T02:46:27;4.78;;;2.80;;
17866;SDS011;9059;49.934;8.650;2022-08-04T02:47:31;5.10;;;2.42;;
17866;SDS011;9059;49.934;8.650;2022-08-04T02:48:33;3.33;;;2.60;;
17866;SDS011;9059;49.934;8.650;2022-08-04T02:49:35;4.50;;;2.58;;
17866;SDS011;9059;49.934;8.650;2022-08-04T02:50:36;3.55;;;2.28;;
17866;SDS011;9059;49.934;8.650;2022-08-04T02:51:39;7.43;;;2.63;;
17866;SDS011;9059;49.934;8.650;2022-08-04T02:52:41;3.95;;;2.78;;
17866;SDS011;9059;49.934;8.650;2022-08-04T02:53:44;3.95;;;2.60;;
17866;SDS011;9059;49.934;8.650;2022-08-04T02:54:46;2.90;;;2.55;;
17866;SDS011;9059;49.934;8.650;2022-08-04T02:55:50;6.22;;;2.83;;
17866;SDS011;9059;49.934;8.650;2022-08-04T02:56:51;3.55;;;2.78;;
17866;SDS011;9059;49.934;8.650;2022-08-04T02:57:53;2.97;;;2.33;;
17866;SDS011;9059;49.934;8.650;2022-08-04T02:58:57;6.47;;;3.35;;
17866;SDS011;9059;49.934;8.650;2022-08-04T03:00:03;3.88;;;3.00;;
17866;SDS011;9059;49.934;8.650;2022-08-04T03:01:06;3.10;;;2.75;;
17866;SDS011;9059;49.934;8.650;2022-08-04T03:02:09;5.32;;;2.92;;
17866;SDS011;9059;49.934;8.650;2022-08-04T03:03:14;3.60;;;2.70;;
17866;SDS011;9059;49.934;8.650;2022-08-04T03:04:21;4.00;;;2.80;;
17866;SDS011;9059;49.934;8.650;2022-08-04T03:05:27;5.03;;;2.60;;
17866;SDS011;9059;49.934;8.650;2022-08-04T03:06:47;3.42;;;2.67;;
17866;SDS011;9059;49.934;8.650;2022-08-04T03:09:52;5.25;;;2.90;;
17866;SDS011;9059;49.934;8.650;2022-08-04T03:11:14;3.40;;;2.70;;
17866;SDS011;9059;49.934;8.650;2022-08-04T03:12:32;4.78;;;2.80;;
17866;SDS011;9059;49.934;8.650;2022-08-04T03:14:04;3.70;;;2.83;;
17866;SDS011;9059;49.934;8.650;2022-08-04T03:17:26;5.25;;;2.72;;
17866;SDS011;9059;49.934;8.650;2022-08-04T03:20:47;3.50;;;2.78;;
17866;SDS011;9059;49.934;8.650;2022-08-04T03:22:14;3.97;;;2.90;;
17866;SDS011;9059;49.934;8.650;2022-08-04T03:26:51;5.40;;;2.90;;
17866;SDS011;9059;49.934;8.650;2022-08-04T03:28:11;3.78;;;2.70;;
17866;SDS011;9059;49.934;8.650;2022-08-04T03:29:54;3.92;;;2.75;;
17866;SDS011;9059;49.934;8.650;2022-08-04T03:31:07;3.90;;;2.80;;
17866;SDS011;9059;49.934;8.650;2022-08-04T03:32:31;2.97;;;2.53;;
17866;SDS011;9059;49.934;8.650;2022-08-04T03:34:10;3.80;;;2.75;;
17866;SDS011;9059;49.934;8.650;2022-08-04T03:35:29;10.93;;;3.00;;
17866;SDS011;9059;49.934;8.650;2022-08-04T03:38:25;6.32;;;3.10;;
17866;SDS011;9059;49.934;8.650;2022-08-04T03:39:56;6.93;;;3.10;;
17866;SDS011;9059;49.934;8.650;2022-08-04T03:41:23;4.55;;;2.80;;
17866;SDS011;9059;49.934;8.650;2022-08-04T03:42:43;4.05;;;3.22;;
17866;SDS011;9059;49.934;8.650;2022-08-04T03:44:15;5.55;;;2.83;;
17866;SDS011;9059;49.934;8.650;2022-08-04T03:47:16;4.43;;;3.28;;
17866;SDS011;9059;49.934;8.650;2022-08-04T03:48:35;6.90;;;3.03;;
17866;SDS011;9059;49.934;8.650;2022-08-04T03:49:47;4.13;;;3.20;;
17866;SDS011;9059;49.934;8.650;2022-08-04T03:51:04;3.65;;;3.00;;
17866;SDS011;9059;49.934;8.650;2022-08-04T03:52:41;7.05;;;3.08;;
17866;SDS011;9059;49.934;8.650;2022-08-04T03:55:48;4.03;;;2.97;;
17866;SDS011;9059;49.934;8.650;2022-08-04T03:57:28;5.10;;;3.10;;
17866;SDS011;9059;49.934;8.650;2022-08-04T04:00:12;6.68;;;3.22;;
17866;SDS011;9059;49.934;8.650;2022-08-04T04:01:23;5.22;;;3.00;;
17866;SDS011;9059;49.934;8.650;2022-08-04T04:02:42;5.68;;;3.20;;
17866;SDS011;9059;49.934;8.650;2022-08-04T04:05:54;6.40;;;2.92;;
17866;SDS011;9059;49.934;8.650;2022-08-04T04:07:21;4.60;;;3.08;;
17866;SDS011;9059;49.934;8.650;2022-08-04T04:13:25;5.05;;;3.33;;
17866;SDS011;9059;49.934;8.650;2022-08-04T04:14:48;5.25;;;3.20;;
17866;SDS011;9059;49.934;8.650;2022-08-04T04:16:12;6.00;;;3.42;;
17866;SDS011;9059;49.934;8.650;2022-08-04T04:20:48;6.05;;;3.40;;
17866;SDS011;9059;49.934;8.650;2022-08-04T04:22:08;4.65;;;3.47;;
17866;SDS011;9059;49.934;8.650;2022-08-04T04:23:28;3.50;;;3.03;;
17866;SDS011;9059;49.934;8.650;2022-08-04T04:24:32;6.05;;;3.47;;
17866;SDS011;9059;49.934;8.650;2022-08-04T04:25:48;4.38;;;3.60;;
17866;SDS011;9059;49.934;8.650;2022-08-04T04:26:57;4.28;;;3.67;;
17866;SDS011;9059;49.934;8.650;2022-08-04T04:28:10;4.68;;;3.40;;
17866;SDS011;9059;49.934;8.650;2022-08-04T04:29:28;4.75;;;3.45;;
17866;SDS011;9059;49.934;8.650;2022-08-04T04:30:40;3.95;;;3.38;;
17866;SDS011;9059;49.934;8.650;2022-08-04T04:31:52;5.10;;;3.67;;
17866;SDS011;9059;49.934;8.650;2022-08-04T04:33:17;5.47;;;3.55;;
17866;SDS011;9059;49.934;8.650;2022-08-04T04:34:27;6.00;;;3.58;;
17866;SDS011;9059;49.934;8.650;2022-08-04T04:35:37;9.60;;;3.40;;
17866;SDS011;9059;49.934;8.650;2022-08-04T04:36:49;4.82;;;3.65;;
17866;SDS011;9059;49.934;8.650;2022-08-04T04:38:03;5.72;;;3.42;;
17866;SDS011;9059;49.934;8.650;2022-08-04T04:39:15;5.03;;;3.47;;
17866;SDS011;9059;49.934;8.650;2022-08-04T04:40:24;7.15;;;3.72;;
17866;SDS011;9059;49.934;8.650;2022-08-04T04:41:35;4.72;;;3.60;;
17866;SDS011;9059;49.934;8.650;2022-08-04T04:42:45;5.35;;;3.58;;
17866;SDS011;9059;49.934;8.650;2022-08-04T04:44:13;4.60;;;3.58;;
17866;SDS011;9059;49.934;8.650;2022-08-04T04:45:28;5.13;;;3.28;;
17866;SDS011;9059;49.934;8.650;2022-08-04T04:46:35;8.55;;;3.88;;
17866;SDS011;9059;49.934;8.650;2022-08-04T04:47:41;7.00;;;4.03;;
17866;SDS011;9059;49.934;8.650;2022-08-04T04:48:50;7.93;;;3.90;;
17866;SDS011;9059;49.934;8.650;2022-08-04T04:49:57;5.00;;;3.70;;
17866;SDS011;9059;49.934;8.650;2022-08-04T04:51:05;3.83;;;3.28;;
17866;SDS011;9059;49.934;8.650;2022-08-04T04:52:14;7.25;;;3.63;;
17866;SDS011;9059;49.934;8.650;2022-08-04T04:53:23;4.72;;;3.55;;
17866;SDS011;9059;49.934;8.650;2022-08-04T04:54:31;5.85;;;3.50;;
17866;SDS011;9059;49.934;8.650;2022-08-04T04:55:37;5.95;;;3.42;;
17866;SDS011;9059;49.934;8.650;2022-08-04T04:56:42;8.40;;;3.63;;
17866;SDS011;9059;49.934;8.650;2022-08-04T04:57:46;4.55;;;3.63;;
17866;SDS011;9059;49.934;8.650;2022-08-04T04:58:49;5.50;;;3.47;;
17866;SDS011;9059;49.934;8.650;2022-08-04T04:59:53;4.53;;;3.63;;
17866;SDS011;9059;49.934;8.650;2022-08-04T05:01:10;5.65;;;3.75;;
17866;SDS011;9059;49.934;8.650;2022-08-04T05:02:42;8.13;;;3.65;;
17866;SDS011;9059;49.934;8.650;2022-08-04T05:04:09;4.97;;;3.28;;
17866;SDS011;9059;49.934;8.650;2022-08-04T05:05:20;9.55;;;3.72;;
17866;SDS011;9059;49.934;8.650;2022-08-04T05:06:49;8.40;;;3.58;;
17866;SDS011;9059;49.934;8.650;2022-08-04T05:09:36;10.48;;;3.40;;
17866;SDS011;9059;49.934;8.650;2022-08-04T05:10:48;12.68;;;3.70;;
17866;SDS011;9059;49.934;8.650;2022-08-04T05:12:05;5.85;;;3.40;;
17866;SDS011;9059;49.934;8.650;2022-08-04T05:13:33;5.78;;;3.92;;
17866;SDS011;9059;49.934;8.650;2022-08-04T05:14:37;10.57;;;3.50;;
17866;SDS011;9059;49.934;8.650;2022-08-04T05:15:44;5.47;;;3.80;;
17866;SDS011;9059;49.934;8.650;2022-08-04T05:16:46;6.68;;;3.33;;
17866;SDS011;9059;49.934;8.650;2022-08-04T05:17:52;7.72;;;3.72;;
17866;SDS011;9059;49.934;8.650;2022-08-04T05:18:56;10.23;;;3.85;;
17866;SDS011;9059;49.934;8.650;2022-08-04T05:20:05;4.40;;;3.40;;
17866;SDS011;9059;49.934;8.650;2022-08-04T05:21:11;8.75;;;3.58;;
17866;SDS011;9059;49.934;8.650;2022-08-04T05:22:24;5.47;;;3.50;;
17866;SDS011;9059;49.934;8.650;2022-08-04T05:23:28;5.28;;;3.85;;
17866;SDS011;9059;49.934;8.650;2022-08-04T05:24:33;7.95;;;3.67;;
17866;SDS011;9059;49.934;8.650;2022-08-04T05:25:38;8.23;;;3.67;;
17866;SDS011;9059;49.934;8.650;2022-08-04T05:26:43;5.13;;;3.45;;
17866;SDS011;9059;49.934;8.650;2022-08-04T05:27:46;4.57;;;3.33;;
17866;SDS011;9059;49.934;8.650;2022-08-04T05:28:51;3.78;;;3.35;;
17866;SDS011;9059;49.934;8.650;2022-08-04T05:29:55;4.78;;;3.50;;
17866;SDS011;9059;49.934;8.650;2022-08-04T05:30:58;4.93;;;3.53;;
17866;SDS011;9059;49.934;8.650;2022-08-04T05:32:01;4.45;;;3.30;;
17866;SDS011;9059;49.934;8.650;2022-08-04T05:33:06;5.82;;;3.33;;
17866;SDS011;9059;49.934;8.650;2022-08-04T05:34:11;4.20;;;3.25;;
17866;SDS011;9059;49.934;8.650;2022-08-04T05:35:15;5.13;;;3.47;;
17866;SDS011;9059;49.934;8.650;2022-08-04T05:36:22;5.15;;;3.30;;
17866;SDS011;9059;49.934;8.650;2022-08-04T05:37:24;5.22;;;3.17;;
17866;SDS011;9059;49.934;8.650;2022-08-04T05:38:28;4.47;;;3.40;;
17866;SDS011;9059;49.934;8.650;2022-08-04T05:39:35;6.05;;;3.50;;
17866;SDS011;9059;49.934;8.650;2022-08-04T05:40:37;6.60;;;3.38;;
17866;SDS011;9059;49.934;8.650;2022-08-04T05:41:39;6.05;;;4.35;;
17866;SDS011;9059;49.934;8.650;2022-08-04T05:42:41;4.63;;;3.40;;
17866;SDS011;9059;49.934;8.650;2022-08-04T05:43:42;7.85;;;3.55;;
17866;SDS011;9059;49.934;8.650;2022-08-04T05:44:44;7.03;;;3.35;;
17866;SDS011;9059;49.934;8.650;2022-08-04T05:45:45;5.57;;;3.45;;
17866;SDS011;9059;49.934;8.650;2022-08-04T05:46:49;4.25;;;3.25;;
17866;SDS011;9059;49.934;8.650;2022-08-04T05:47:51;4.13;;;3.33;;
17866;SDS011;9059;49.934;8.650;2022-08-04T05:48:53;3.97;;;3.17;;
17866;SDS011;9059;49.934;8.650;2022-08-04T05:49:55;5.95;;;3.40;;
17866;SDS011;9059;49.934;8.650;2022-08-04T05:50:57;4.00;;;3.22;;
17866;SDS011;9059;49.934;8.650;2022-08-04T05:51:58;3.08;;;2.72;;
17866;SDS011;9059;49.934;8.650;2022-08-04T05:53:01;6.60;;;3.35;;
17866;SDS011;9059;49.934;8.650;2022-08-04T05:54:04;8.55;;;3.53;;
17866;SDS011;9059;49.934;8.650;2022-08-04T05:55:06;5.43;;;3.30;;
17866;SDS011;9059;49.934;8.650;2022-08-04T05:56:12;7.57;;;3.50;;
17866;SDS011;9059;49.934;8.650;2022-08-04T05:57:14;9.25;;;4.03;;
17866;SDS011;9059;49.934;8.650;2022-08-04T05:58:16;7.32;;;3.63;;
17866;SDS011;9059;49.934;8.650;2022-08-04T05:59:18;11.43;;;3.80;;
17866;SDS011;9059;49.934;8.650;2022-08-04T06:00:23;4.30;;;3.47;;
17866;SDS011;9059;49.934;8.650;2022-08-04T06:01:24;9.02;;;3.38;;
17866;SDS011;9059;49.934;8.650;2022-08-04T06:02:27;7.45;;;3.67;;
17866;SDS011;9059;49.934;8.650;2022-08-04T06:03:30;7.30;;;3.50;;
17866;SDS011;9059;49.934;8.650;2022-08-04T06:04:34;7.28;;;3.40;;
17866;SDS011;9059;49.934;8.650;2022-08-04T06:05:37;9.70;;;3.47;;
17866;SDS011;9059;49.934;8.650;2022-08-04T06:06:39;7.03;;;3.17;;
17866;SDS011;9059;49.934;8.650;2022-08-04T06:07:41;13.57;;;3.55;;
17866;SDS011;9059;49.934;8.650;2022-08-04T06:08:42;7.45;;;3.47;;
17866;SDS011;9059;49.934;8.650;2022-08-04T06:09:45;8.40;;;3.55;;
17866;SDS011;9059;49.934;8.650;2022-08-04T06:10:47;6.35;;;3.88;;
17866;SDS011;9059;49.934;8.650;2022-08-04T06:11:49;6.90;;;3.53;;
17866;SDS011;9059;49.934;8.650;2022-08-04T06:12:51;3.97;;;3.42;;
17866;SDS011;9059;49.934;8.650;2022-08-04T06:13:55;5.00;;;3.03;;
17866;SDS011;9059;49.934;8.650;2022-08-04T06:14:57;5.45;;;3.25;;
17866;SDS011;9059;49.934;8.650;2022-08-04T06:15:59;5.43;;;3.15;;
17866;SDS011;9059;49.934;8.650;2022-08-04T06:17:02;6.00;;;3.15;;
17866;SDS011;9059;49.934;8.650;2022-08-04T06:18:05;9.80;;;3.50;;
17866;SDS011;9059;49.934;8.650;2022-08-04T06:19:10;7.75;;;3.33;;
17866;SDS011;9059;49.934;8.650;2022-08-04T06:20:12;12.95;;;3.22;;
17866;SDS011;9059;49.934;8.650;2022-08-04T06:21:14;7.97;;;3.40;;
17866;SDS011;9059;49.934;8.650;2022-08-04T06:22:16;4.57;;;3.15;;
17866;SDS011;9059;49.934;8.650;2022-08-04T06:23:19;4.97;;;3.38;;
17866;SDS011;9059;49.934;8.650;2022-08-04T06:24:21;4.10;;;3.05;;
17866;SDS011;9059;49.934;8.650;2022-08-04T06:25:27;4.35;;;3.45;;
17866;SDS011;9059;49.934;8.650;2022-08-04T06:26:32;3.65;;;2.85;;
17866;SDS011;9059;49.934;8.650;2022-08-04T06:27:34;6.53;;;2.92;;
17866;SDS011;9059;49.934;8.650;2022-08-04T06:28:36;6.40;;;3.22;;
17866;SDS011;9059;49.934;8.650;2022-08-04T06:29:37;6.03;;;3.13;;
17866;SDS011;9059;49.934;8.650;2022-08-04T06:30:40;5.68;;;2.95;;
17866;SDS011;9059;49.934;8.650;2022-08-04T06:31:46;12.55;;;3.08;;
17866;SDS011;9059;49.934;8.650;2022-08-04T06:32:57;7.43;;;3.17;;
17866;SDS011;9059;49.934;8.650;2022-08-04T06:34:02;6.88;;;3.22;;
17866;SDS011;9059;49.934;8.650;2022-08-04T06:35:05;5.70;;;3.38;;
17866;SDS011;9059;49.934;8.650;2022-08-04T06:36:07;5.60;;;3.25;;
17866;SDS011;9059;49.934;8.650;2022-08-04T06:37:09;3.60;;;3.00;;
17866;SDS011;9059;49.934;8.650;2022-08-04T06:38:11;3.90;;;3.40;;
17866;SDS011;9059;49.934;8.650;2022-08-04T06:39:12;10.73;;;3.60;;
17866;SDS011;9059;49.934;8.650;2022-08-04T06:40:15;5.43;;;3.35;;
17866;SDS011;9059;49.934;8.650;2022-08-04T06:41:19;7.18;;;3.17;;
17866;SDS011;9059;49.934;8.650;2022-08-04T06:42:21;9.52;;;3.28;;
17866;SDS011;9059;49.934;8.650;2022-08-04T06:43:25;4.25;;;3.20;;
17866;SDS011;9059;49.934;8.650;2022-08-04T06:44:27;7.50;;;3.50;;
17866;SDS011;9059;49.934;8.650;2022-08-04T06:45:29;4.82;;;3.50;;
17866;SDS011;9059;49.934;8.650;2022-08-04T06:46:33;7.75;;;3.38;;
17866;SDS011;9059;49.934;8.650;2022-08-04T06:47:35;4.00;;;3.05;;
17866;SDS011;9059;49.934;8.650;2022-08-04T06:48:37;6.05;;;3.67;;
17866;SDS011;9059;49.934;8.650;2022-08-04T06:49:39;5.70;;;3.03;;
17866;SDS011;9059;49.934;8.650;2022-08-04T06:50:41;5.10;;;3.10;;
17866;SDS011;9059;49.934;8.650;2022-08-04T06:51:44;5.35;;;3.13;;
17866;SDS011;9059;49.934;8.650;2022-08-04T06:52:45;4.53;;;2.92;;
17866;SDS011;9059;49.934;8.650;2022-08-04T06:53:47;4.30;;;3.05;;
17866;SDS011;9059;49.934;8.650;2022-08-04T06:54:48;7.13;;;3.25;;
17866;SDS011;9059;49.934;8.650;2022-08-04T06:55:51;6.68;;;3.28;;
17866;SDS011;9059;49.934;8.650;2022-08-04T06:56:55;6.85;;;3.17;;
17866;SDS011;9059;49.934;8.650;2022-08-04T06:57:57;10.82;;;2.95;;
17866;SDS011;9059;49.934;8.650;2022-08-04T06:59:00;9.05;;;3.10;;
17866;SDS011;9059;49.934;8.650;2022-08-04T07:00:03;6.00;;;2.90;;
17866;SDS011;9059;49.934;8.650;2022-08-04T07:01:08;6.63;;;3.30;;
17866;SDS011;9059;49.934;8.650;2022-08-04T07:02:11;6.82;;;2.90;;
17866;SDS011;9059;49.934;8.650;2022-08-04T07:03:15;5.57;;;2.95;;
17866;SDS011;9059;49.934;8.650;2022-08-04T07:04:18;10.32;;;3.22;;
17866;SDS011;9059;49.934;8.650;2022-08-04T07:05:20;11.23;;;3.17;;
17866;SDS011;9059;49.934;8.650;2022-08-04T07:06:21;6.70;;;2.75;;
17866;SDS011;9059;49.934;8.650;2022-08-04T07:07:24;6.18;;;3.17;;
17866;SDS011;9059;49.934;8.650;2022-08-04T07:08:25;3.42;;;2.78;;
17866;SDS011;9059;49.934;8.650;2022-08-04T07:09:27;8.02;;;2.60;;
17866;SDS011;9059;49.934;8.650;2022-08-04T07:10:28;5.00;;;2.90;;
17866;SDS011;9059;49.934;8.650;2022-08-04T07:11:30;4.28;;;2.95;;
17866;SDS011;9059;49.934;8.650;2022-08-04T07:12:34;7.55;;;3.08;;
17866;SDS011;9059;49.934;8.650;2022-08-04T07:13:36;4.78;;;3.03;;
17866;SDS011;9059;49.934;8.650;2022-08-04T07:14:37;10.15;;;2.63;;
17866;SDS011;9059;49.934;8.650;2022-08-04T07:15:40;7.40;;;2.70;;
17866;SDS011;9059;49.934;8.650;2022-08-04T07:16:41;3.20;;;2.83;;
17866;SDS011;9059;49.934;8.650;2022-08-04T07:17:43;5.07;;;2.88;;
17866;SDS011;9059;49.934;8.650;2022-08-04T07:18:44;14.70;;;3.17;;
17866;SDS011;9059;49.934;8.650;2022-08-04T07:19:46;9.95;;;2.75;;
17866;SDS011;9059;49.934;8.650;2022-08-04T07:20:47;5.43;;;2.80;;
17866;SDS011;9059;49.934;8.650;2022-08-04T07:21:49;4.88;;;2.70;;
17866;SDS011;9059;49.934;8.650;2022-08-04T07:22:50;6.43;;;2.95;;
17866;SDS011;9059;49.934;8.650;2022-08-04T07:23:52;4.00;;;2.63;;
17866;SDS011;9059;49.934;8.650;2022-08-04T07:24:53;4.22;;;2.78;;
17866;SDS011;9059;49.934;8.650;2022-08-04T07:25:55;5.38;;;3.13;;
17866;SDS011;9059;49.934;8.650;2022-08-04T07:26:57;3.70;;;2.80;;